sensor_id;sensor_type;location;lat;lon;timestamp;P1;durP1;ratioP1;P2;durP2;ratioP2
13122;SDS011;6627;50.920;12.050;2022-11-27T00:01:29;28.60;;;19.83;;
13122;SDS011;6627;50.920;12.050;2022-11-27T00:04:00;28.93;;;18.60;;
13122;SDS011;6627;50.920;12.050;2022-11-27T00:06:29;32.70;;;18.77;;
13122;SDS011;6627;50.920;12.050;2022-11-27T00:09:00;25.63;;;18.60;;
13122;SDS011;6627;50.920;12.050;2022-11-27T00:11:30;31.67;;;18.90;;
13122;SDS011;6627;50.920;12.050;2022-11-27T00:13:58;28.77;;;17.73;;
13122;SDS011;6627;50.920;12.050;2022-11-27T00:16:27;27.00;;;17.37;;
13122;SDS011;6627;50.920;12.050;2022-11-27T00:18:54;26.47;;;17.50;;
13122;SDS011;6627;50.920;12.050;2022-11-27T00:21:23;26.53;;;17.00;;
13122;SDS011;6627;50.920;12.050;2022-11-27T00:23:57;24.03;;;16.77;;
13122;SDS011;6627;50.920;12.050;2022-11-27T00:26:28;22.57;;;16.33;;
13122;SDS011;6627;50.920;12.050;2022-11-27T00:28:56;45.40;;;24.97;;
13122;SDS011;6627;50.920;12.050;2022-11-27T00:31:26;73.13;;;40.00;;
13122;SDS011;6627;50.920;12.050;2022-11-27T00:33:57;68.10;;;39.37;;
13122;SDS011;6627;50.920;12.050;2022-11-27T00:36:28;64.57;;;37.27;;
13122;SDS011;6627;50.920;12.050;2022-11-27T00:38:59;52.10;;;33.20;;
13122;SDS011;6627;50.920;12.050;2022-11-27T00:41:27;48.33;;;30.40;;
13122;SDS011;6627;50.920;12.050;2022-11-27T00:43:56;56.37;;;34.83;;
13122;SDS011;6627;50.920;12.050;2022-11-27T00:46:24;53.87;;;32.10;;
13122;SDS011;6627;50.920;12.050;2022-11-27T00:48:54;44.13;;;25.20;;
13122;SDS011;6627;50.920;12.050;2022-11-27T00:51:22;40.60;;;24.77;;
13122;SDS011;6627;50.920;12.050;2022-11-27T00:53:51;31.17;;;20.63;;
13122;SDS011;6627;50.920;12.050;2022-11-27T00:56:22;31.40;;;20.90;;
13122;SDS011;6627;50.920;12.050;2022-11-27T00:58:52;26.87;;;18.53;;
13122;SDS011;6627;50.920;12.050;2022-11-27T01:01:21;32.40;;;20.37;;
13122;SDS011;6627;50.920;12.050;2022-11-27T01:03:51;27.60;;;19.07;;
13122;SDS011;6627;50.920;12.050;2022-11-27T01:06:20;26.87;;;18.17;;
13122;SDS011;6627;50.920;12.050;2022-11-27T01:08:49;29.43;;;19.17;;
13122;SDS011;6627;50.920;12.050;2022-11-27T01:11:17;29.67;;;17.93;;
13122;SDS011;6627;50.920;12.050;2022-11-27T01:13:50;28.17;;;15.50;;
13122;SDS011;6627;50.920;12.050;2022-11-27T01:16:19;26.63;;;16.63;;
13122;SDS011;6627;50.920;12.050;2022-11-27T01:18:49;30.63;;;16.83;;
13122;SDS011;6627;50.920;12.050;2022-11-27T01:21:20;27.03;;;16.43;;
13122;SDS011;6627;50.920;12.050;2022-11-27T01:23:48;26.70;;;16.83;;
13122;SDS011;6627;50.920;12.050;2022-11-27T01:26:17;25.27;;;16.70;;
13122;SDS011;6627;50.920;12.050;2022-11-27T01:28:46;27.93;;;17.70;;
13122;SDS011;6627;50.920;12.050;2022-11-27T01:31:17;35.80;;;19.80;;
13122;SDS011;6627;50.920;12.050;2022-11-27T01:33:50;32.73;;;17.33;;
13122;SDS011;6627;50.920;12.050;2022-11-27T01:36:20;30.10;;;18.20;;
13122;SDS011;6627;50.920;12.050;2022-11-27T01:38:48;29.13;;;18.20;;
13122;SDS011;6627;50.920;12.050;2022-11-27T01:41:17;30.57;;;17.90;;
13122;SDS011;6627;50.920;12.050;2022-11-27T01:43:49;27.23;;;17.50;;
13122;SDS011;6627;50.920;12.050;2022-11-27T01:46:30;34.30;;;18.03;;
13122;SDS011;6627;50.920;12.050;2022-11-27T01:49:10;30.97;;;17.57;;
13122;SDS011;6627;50.920;12.050;2022-11-27T01:51:50;30.07;;;17.37;;
13122;SDS011;6627;50.920;12.050;2022-11-27T01:54:25;29.67;;;18.30;;
13122;SDS011;6627;50.920;12.050;2022-11-27T01:56:57;31.30;;;17.60;;
13122;SDS011;6627;50.920;12.050;2022-11-27T01:59:31;26.63;;;16.93;;
13122;SDS011;6627;50.920;12.050;2022-11-27T02:01:59;27.07;;;16.27;;
13122;SDS011;6627;50.920;12.050;2022-11-27T02:04:29;26.80;;;17.47;;
13122;SDS011;6627;50.920;12.050;2022-11-27T02:06:57;29.07;;;18.17;;
13122;SDS011;6627;50.920;12.050;2022-11-27T02:09:25;22.87;;;16.00;;
13122;SDS011;6627;50.920;12.050;2022-11-27T02:11:56;25.73;;;16.90;;
13122;SDS011;6627;50.920;12.050;2022-11-27T02:14:36;32.17;;;17.47;;
13122;SDS011;6627;50.920;12.050;2022-11-27T02:17:12;29.83;;;16.23;;
13122;SDS011;6627;50.920;12.050;2022-11-27T02:19:54;27.90;;;16.40;;
13122;SDS011;6627;50.920;12.050;2022-11-27T02:22:48;31.43;;;17.13;;
13122;SDS011;6627;50.920;12.050;2022-11-27T02:25:38;28.53;;;15.57;;
13122;SDS011;6627;50.920;12.050;2022-11-27T02:28:30;24.07;;;16.07;;
13122;SDS011;6627;50.920;12.050;2022-11-27T02:31:13;25.17;;;15.37;;
13122;SDS011;6627;50.920;12.050;2022-11-27T02:33:48;22.23;;;15.97;;
13122;SDS011;6627;50.920;12.050;2022-11-27T02:36:22;25.60;;;15.57;;
13122;SDS011;6627;50.920;12.050;2022-11-27T02:38:58;27.67;;;16.00;;
13122;SDS011;6627;50.920;12.050;2022-11-27T02:41:36;22.90;;;15.30;;
13122;SDS011;6627;50.920;12.050;2022-11-27T02:44:12;24.60;;;15.70;;
13122;SDS011;6627;50.920;12.050;2022-11-27T02:46:43;22.90;;;15.07;;
13122;SDS011;6627;50.920;12.050;2022-11-27T02:49:15;31.67;;;16.40;;
13122;SDS011;6627;50.920;12.050;2022-11-27T02:51:46;20.60;;;15.03;;
13122;SDS011;6627;50.920;12.050;2022-11-27T02:54:20;24.53;;;15.40;;
13122;SDS011;6627;50.920;12.050;2022-11-27T02:56:52;24.10;;;15.60;;
13122;SDS011;6627;50.920;12.050;2022-11-27T02:59:25;26.33;;;15.63;;
13122;SDS011;6627;50.920;12.050;2022-11-27T03:01:59;23.43;;;14.93;;
13122;SDS011;6627;50.920;12.050;2022-11-27T03:04:34;22.50;;;14.33;;
13122;SDS011;6627;50.920;12.050;2022-11-27T03:07:11;23.87;;;14.90;;
13122;SDS011;6627;50.920;12.050;2022-11-27T03:09:45;26.87;;;15.77;;
13122;SDS011;6627;50.920;12.050;2022-11-27T03:12:18;26.73;;;16.57;;
13122;SDS011;6627;50.920;12.050;2022-11-27T03:14:45;27.03;;;15.90;;
13122;SDS011;6627;50.920;12.050;2022-11-27T03:17:19;24.50;;;15.53;;
13122;SDS011;6627;50.920;12.050;2022-11-27T03:20:06;22.13;;;14.80;;
13122;SDS011;6627;50.920;12.050;2022-11-27T03:22:41;28.60;;;15.20;;
13122;SDS011;6627;50.920;12.050;2022-11-27T03:25:08;24.20;;;15.17;;
13122;SDS011;6627;50.920;12.050;2022-11-27T03:27:38;22.20;;;14.93;;
13122;SDS011;6627;50.920;12.050;2022-11-27T03:30:11;22.87;;;15.13;;
13122;SDS011;6627;50.920;12.050;2022-11-27T03:32:41;23.73;;;14.70;;
13122;SDS011;6627;50.920;12.050;2022-11-27T03:35:10;23.70;;;14.10;;
13122;SDS011;6627;50.920;12.050;2022-11-27T03:37:41;22.80;;;14.10;;
13122;SDS011;6627;50.920;12.050;2022-11-27T03:40:09;26.37;;;14.20;;
13122;SDS011;6627;50.920;12.050;2022-11-27T03:42:42;24.07;;;15.47;;
13122;SDS011;6627;50.920;12.050;2022-11-27T03:45:26;24.63;;;14.40;;
13122;SDS011;6627;50.920;12.050;2022-11-27T03:48:08;22.37;;;13.73;;
13122;SDS011;6627;50.920;12.050;2022-11-27T03:50:51;27.17;;;15.23;;
13122;SDS011;6627;50.920;12.050;2022-11-27T03:53:34;30.30;;;16.10;;
13122;SDS011;6627;50.920;12.050;2022-11-27T03:56:17;26.90;;;15.43;;
13122;SDS011;6627;50.920;12.050;2022-11-27T03:59:00;26.90;;;15.17;;
13122;SDS011;6627;50.920;12.050;2022-11-27T04:01:34;23.27;;;15.27;;
13122;SDS011;6627;50.920;12.050;2022-11-27T04:04:03;23.00;;;15.03;;
13122;SDS011;6627;50.920;12.050;2022-11-27T04:06:31;24.73;;;14.90;;
13122;SDS011;6627;50.920;12.050;2022-11-27T04:08:58;31.53;;;15.87;;
13122;SDS011;6627;50.920;12.050;2022-11-27T04:11:26;25.13;;;16.57;;
13122;SDS011;6627;50.920;12.050;2022-11-27T04:13:53;24.90;;;16.47;;
13122;SDS011;6627;50.920;12.050;2022-11-27T04:16:21;33.23;;;17.40;;
13122;SDS011;6627;50.920;12.050;2022-11-27T04:18:48;30.93;;;18.40;;
13122;SDS011;6627;50.920;12.050;2022-11-27T04:21:17;34.27;;;19.07;;
13122;SDS011;6627;50.920;12.050;2022-11-27T04:23:44;35.60;;;19.47;;
13122;SDS011;6627;50.920;12.050;2022-11-27T04:26:11;30.80;;;18.87;;
13122;SDS011;6627;50.920;12.050;2022-11-27T04:28:38;28.97;;;17.17;;
13122;SDS011;6627;50.920;12.050;2022-11-27T04:31:06;28.40;;;16.70;;
13122;SDS011;6627;50.920;12.050;2022-11-27T04:33:33;22.07;;;15.47;;
13122;SDS011;6627;50.920;12.050;2022-11-27T04:36:02;24.17;;;14.93;;
13122;SDS011;6627;50.920;12.050;2022-11-27T04:38:31;21.97;;;14.27;;
13122;SDS011;6627;50.920;12.050;2022-11-27T04:40:58;27.33;;;15.00;;
13122;SDS011;6627;50.920;12.050;2022-11-27T04:43:25;35.23;;;21.67;;
13122;SDS011;6627;50.920;12.050;2022-11-27T04:45:53;26.37;;;16.93;;
13122;SDS011;6627;50.920;12.050;2022-11-27T04:48:21;25.87;;;16.00;;
13122;SDS011;6627;50.920;12.050;2022-11-27T04:50:48;23.97;;;15.30;;
13122;SDS011;6627;50.920;12.050;2022-11-27T04:53:15;23.23;;;15.30;;
13122;SDS011;6627;50.920;12.050;2022-11-27T04:55:44;24.23;;;14.70;;
13122;SDS011;6627;50.920;12.050;2022-11-27T04:58:11;26.23;;;15.83;;
13122;SDS011;6627;50.920;12.050;2022-11-27T05:00:38;24.97;;;15.10;;
13122;SDS011;6627;50.920;12.050;2022-11-27T05:03:05;25.13;;;15.33;;
13122;SDS011;6627;50.920;12.050;2022-11-27T05:05:33;29.13;;;16.20;;
13122;SDS011;6627;50.920;12.050;2022-11-27T05:08:00;31.80;;;17.03;;
13122;SDS011;6627;50.920;12.050;2022-11-27T05:10:27;25.63;;;15.77;;
13122;SDS011;6627;50.920;12.050;2022-11-27T05:12:56;30.67;;;16.97;;
13122;SDS011;6627;50.920;12.050;2022-11-27T05:15:23;29.77;;;16.57;;
13122;SDS011;6627;50.920;12.050;2022-11-27T05:17:50;33.30;;;17.63;;
13122;SDS011;6627;50.920;12.050;2022-11-27T05:20:18;29.67;;;16.50;;
13122;SDS011;6627;50.920;12.050;2022-11-27T05:22:45;34.50;;;17.83;;
13122;SDS011;6627;50.920;12.050;2022-11-27T05:25:14;28.73;;;17.53;;
13122;SDS011;6627;50.920;12.050;2022-11-27T05:27:41;31.33;;;17.07;;
13122;SDS011;6627;50.920;12.050;2022-11-27T05:30:10;26.57;;;16.57;;
13122;SDS011;6627;50.920;12.050;2022-11-27T05:32:38;32.90;;;17.50;;
13122;SDS011;6627;50.920;12.050;2022-11-27T05:35:05;30.27;;;16.50;;
13122;SDS011;6627;50.920;12.050;2022-11-27T05:37:33;27.40;;;18.23;;
13122;SDS011;6627;50.920;12.050;2022-11-27T05:40:00;28.73;;;18.73;;
13122;SDS011;6627;50.920;12.050;2022-11-27T05:42:28;32.20;;;18.90;;
13122;SDS011;6627;50.920;12.050;2022-11-27T05:44:55;26.43;;;17.93;;
13122;SDS011;6627;50.920;12.050;2022-11-27T05:47:24;26.37;;;16.57;;
13122;SDS011;6627;50.920;12.050;2022-11-27T05:49:51;25.87;;;15.67;;
13122;SDS011;6627;50.920;12.050;2022-11-27T05:52:19;25.20;;;16.00;;
13122;SDS011;6627;50.920;12.050;2022-11-27T05:54:46;27.17;;;16.27;;
13122;SDS011;6627;50.920;12.050;2022-11-27T05:57:13;24.53;;;16.07;;
13122;SDS011;6627;50.920;12.050;2022-11-27T05:59:41;25.67;;;15.83;;
13122;SDS011;6627;50.920;12.050;2022-11-27T06:02:08;22.17;;;14.43;;
13122;SDS011;6627;50.920;12.050;2022-11-27T06:04:36;30.73;;;15.73;;
13122;SDS011;6627;50.920;12.050;2022-11-27T06:07:04;26.17;;;15.20;;
13122;SDS011;6627;50.920;12.050;2022-11-27T06:09:31;27.47;;;15.10;;
13122;SDS011;6627;50.920;12.050;2022-11-27T06:11:58;22.73;;;14.63;;
13122;SDS011;6627;50.920;12.050;2022-11-27T06:14:25;24.00;;;14.67;;
13122;SDS011;6627;50.920;12.050;2022-11-27T06:16:54;22.67;;;14.80;;
13122;SDS011;6627;50.920;12.050;2022-11-27T06:19:21;27.50;;;15.00;;
13122;SDS011;6627;50.920;12.050;2022-11-27T06:21:50;25.80;;;14.93;;
13122;SDS011;6627;50.920;12.050;2022-11-27T06:24:17;32.90;;;17.53;;
13122;SDS011;6627;50.920;12.050;2022-11-27T06:26:44;28.33;;;18.57;;
13122;SDS011;6627;50.920;12.050;2022-11-27T06:29:12;25.40;;;16.90;;
13122;SDS011;6627;50.920;12.050;2022-11-27T06:31:39;30.13;;;17.50;;
13122;SDS011;6627;50.920;12.050;2022-11-27T06:34:07;26.00;;;17.90;;
13122;SDS011;6627;50.920;12.050;2022-11-27T06:36:35;33.47;;;21.00;;
13122;SDS011;6627;50.920;12.050;2022-11-27T06:39:06;33.20;;;20.53;;
13122;SDS011;6627;50.920;12.050;2022-11-27T06:41:36;25.60;;;16.23;;
13122;SDS011;6627;50.920;12.050;2022-11-27T06:44:03;27.53;;;15.73;;
13122;SDS011;6627;50.920;12.050;2022-11-27T06:46:31;27.37;;;16.83;;
13122;SDS011;6627;50.920;12.050;2022-11-27T06:48:58;27.60;;;15.53;;
13122;SDS011;6627;50.920;12.050;2022-11-27T06:51:27;23.67;;;15.00;;
13122;SDS011;6627;50.920;12.050;2022-11-27T06:53:57;28.17;;;15.60;;
13122;SDS011;6627;50.920;12.050;2022-11-27T06:56:29;30.40;;;16.90;;
13122;SDS011;6627;50.920;12.050;2022-11-27T06:58:58;26.27;;;15.87;;
13122;SDS011;6627;50.920;12.050;2022-11-27T07:01:27;25.03;;;15.40;;
13122;SDS011;6627;50.920;12.050;2022-11-27T07:03:57;27.37;;;15.70;;
13122;SDS011;6627;50.920;12.050;2022-11-27T07:06:25;28.03;;;15.40;;
13122;SDS011;6627;50.920;12.050;2022-11-27T07:08:53;22.93;;;14.73;;
13122;SDS011;6627;50.920;12.050;2022-11-27T07:11:23;23.37;;;15.07;;
13122;SDS011;6627;50.920;12.050;2022-11-27T07:13:56;24.77;;;14.03;;
13122;SDS011;6627;50.920;12.050;2022-11-27T07:16:26;27.13;;;15.17;;
13122;SDS011;6627;50.920;12.050;2022-11-27T07:18:57;22.50;;;13.60;;
13122;SDS011;6627;50.920;12.050;2022-11-27T07:21:26;22.70;;;14.30;;
13122;SDS011;6627;50.920;12.050;2022-11-27T07:23:54;20.93;;;13.83;;
13122;SDS011;6627;50.920;12.050;2022-11-27T07:26:22;21.60;;;13.53;;
13122;SDS011;6627;50.920;12.050;2022-11-27T07:28:52;21.73;;;13.60;;
13122;SDS011;6627;50.920;12.050;2022-11-27T07:31:23;26.73;;;15.27;;
13122;SDS011;6627;50.920;12.050;2022-11-27T07:33:53;20.53;;;13.37;;
13122;SDS011;6627;50.920;12.050;2022-11-27T07:36:22;18.30;;;12.97;;
13122;SDS011;6627;50.920;12.050;2022-11-27T07:38:51;23.70;;;13.50;;
13122;SDS011;6627;50.920;12.050;2022-11-27T07:41:19;18.57;;;12.40;;
13122;SDS011;6627;50.920;12.050;2022-11-27T07:43:46;24.00;;;13.67;;
13122;SDS011;6627;50.920;12.050;2022-11-27T07:46:16;25.03;;;13.90;;
13122;SDS011;6627;50.920;12.050;2022-11-27T07:48:46;22.63;;;16.07;;
13122;SDS011;6627;50.920;12.050;2022-11-27T07:51:14;25.47;;;16.23;;
13122;SDS011;6627;50.920;12.050;2022-11-27T07:53:44;22.33;;;15.50;;
13122;SDS011;6627;50.920;12.050;2022-11-27T07:56:12;22.07;;;13.70;;
13122;SDS011;6627;50.920;12.050;2022-11-27T07:58:41;19.17;;;13.77;;
13122;SDS011;6627;50.920;12.050;2022-11-27T08:01:13;23.17;;;13.50;;
13122;SDS011;6627;50.920;12.050;2022-11-27T08:03:44;18.63;;;12.87;;
13122;SDS011;6627;50.920;12.050;2022-11-27T08:06:12;18.27;;;13.10;;
13122;SDS011;6627;50.920;12.050;2022-11-27T08:08:42;15.93;;;12.03;;
13122;SDS011;6627;50.920;12.050;2022-11-27T08:11:13;18.20;;;12.37;;
13122;SDS011;6627;50.920;12.050;2022-11-27T08:13:46;15.70;;;11.97;;
13122;SDS011;6627;50.920;12.050;2022-11-27T08:16:14;18.77;;;12.00;;
13122;SDS011;6627;50.920;12.050;2022-11-27T08:18:43;18.13;;;11.77;;
13122;SDS011;6627;50.920;12.050;2022-11-27T08:21:10;17.13;;;11.47;;
13122;SDS011;6627;50.920;12.050;2022-11-27T08:23:38;13.80;;;11.17;;
13122;SDS011;6627;50.920;12.050;2022-11-27T08:26:07;15.73;;;11.80;;
13122;SDS011;6627;50.920;12.050;2022-11-27T08:28:36;18.10;;;12.07;;
13122;SDS011;6627;50.920;12.050;2022-11-27T08:31:04;15.53;;;11.20;;
13122;SDS011;6627;50.920;12.050;2022-11-27T08:33:36;15.20;;;10.63;;
13122;SDS011;6627;50.920;12.050;2022-11-27T08:36:04;15.93;;;11.20;;
13122;SDS011;6627;50.920;12.050;2022-11-27T08:38:32;18.57;;;12.53;;
13122;SDS011;6627;50.920;12.050;2022-11-27T08:41:00;17.27;;;11.40;;
13122;SDS011;6627;50.920;12.050;2022-11-27T08:43:30;16.07;;;11.13;;
13122;SDS011;6627;50.920;12.050;2022-11-27T08:45:58;18.37;;;11.73;;
13122;SDS011;6627;50.920;12.050;2022-11-27T08:48:29;17.60;;;11.40;;
13122;SDS011;6627;50.920;12.050;2022-11-27T08:50:57;21.27;;;12.00;;
13122;SDS011;6627;50.920;12.050;2022-11-27T08:53:25;19.00;;;11.77;;
13122;SDS011;6627;50.920;12.050;2022-11-27T08:55:52;17.97;;;10.87;;
13122;SDS011;6627;50.920;12.050;2022-11-27T08:58:19;14.50;;;10.07;;
13122;SDS011;6627;50.920;12.050;2022-11-27T09:00:47;13.03;;;9.87;;
13122;SDS011;6627;50.920;12.050;2022-11-27T09:03:15;13.60;;;9.70;;
13122;SDS011;6627;50.920;12.050;2022-11-27T09:05:43;17.27;;;10.20;;
13122;SDS011;6627;50.920;12.050;2022-11-27T09:08:11;13.30;;;10.03;;
13122;SDS011;6627;50.920;12.050;2022-11-27T09:10:44;13.40;;;9.73;;
13122;SDS011;6627;50.920;12.050;2022-11-27T09:13:12;12.03;;;10.03;;
13122;SDS011;6627;50.920;12.050;2022-11-27T09:15:39;12.30;;;9.40;;
13122;SDS011;6627;50.920;12.050;2022-11-27T09:18:06;14.13;;;9.57;;
13122;SDS011;6627;50.920;12.050;2022-11-27T09:20:34;15.47;;;10.43;;
13122;SDS011;6627;50.920;12.050;2022-11-27T09:23:01;14.67;;;9.60;;
13122;SDS011;6627;50.920;12.050;2022-11-27T09:25:29;11.00;;;8.90;;
13122;SDS011;6627;50.920;12.050;2022-11-27T09:27:57;11.67;;;9.77;;
13122;SDS011;6627;50.920;12.050;2022-11-27T09:30:25;13.50;;;9.43;;
13122;SDS011;6627;50.920;12.050;2022-11-27T09:32:52;14.33;;;9.47;;
13122;SDS011;6627;50.920;12.050;2022-11-27T09:35:19;11.90;;;9.10;;
13122;SDS011;6627;50.920;12.050;2022-11-27T09:37:46;14.10;;;9.30;;
13122;SDS011;6627;50.920;12.050;2022-11-27T09:40:14;13.03;;;9.10;;
13122;SDS011;6627;50.920;12.050;2022-11-27T09:42:46;14.50;;;9.23;;
13122;SDS011;6627;50.920;12.050;2022-11-27T09:45:21;12.97;;;8.80;;
13122;SDS011;6627;50.920;12.050;2022-11-27T09:47:53;12.47;;;8.57;;
13122;SDS011;6627;50.920;12.050;2022-11-27T09:50:29;12.43;;;8.20;;
13122;SDS011;6627;50.920;12.050;2022-11-27T09:53:03;14.00;;;9.67;;
13122;SDS011;6627;50.920;12.050;2022-11-27T09:55:43;13.23;;;8.80;;
13122;SDS011;6627;50.920;12.050;2022-11-27T09:58:17;9.63;;;8.20;;
13122;SDS011;6627;50.920;12.050;2022-11-27T10:00:53;12.97;;;8.90;;
13122;SDS011;6627;50.920;12.050;2022-11-27T10:03:22;14.23;;;8.27;;
13122;SDS011;6627;50.920;12.050;2022-11-27T10:05:58;14.10;;;9.00;;
13122;SDS011;6627;50.920;12.050;2022-11-27T10:08:39;11.57;;;8.93;;
13122;SDS011;6627;50.920;12.050;2022-11-27T10:11:20;41.90;;;23.20;;
13122;SDS011;6627;50.920;12.050;2022-11-27T10:14:05;16.53;;;11.10;;
13122;SDS011;6627;50.920;12.050;2022-11-27T10:16:55;15.40;;;10.67;;
13122;SDS011;6627;50.920;12.050;2022-11-27T10:19:33;17.43;;;9.70;;
13122;SDS011;6627;50.920;12.050;2022-11-27T10:22:14;11.07;;;7.73;;
13122;SDS011;6627;50.920;12.050;2022-11-27T10:24:55;14.37;;;8.43;;
13122;SDS011;6627;50.920;12.050;2022-11-27T10:27:38;12.97;;;8.27;;
13122;SDS011;6627;50.920;12.050;2022-11-27T10:30:13;11.67;;;8.27;;
13122;SDS011;6627;50.920;12.050;2022-11-27T10:32:43;13.53;;;8.10;;
13122;SDS011;6627;50.920;12.050;2022-11-27T10:35:15;15.70;;;8.40;;
13122;SDS011;6627;50.920;12.050;2022-11-27T10:37:46;13.37;;;8.73;;
13122;SDS011;6627;50.920;12.050;2022-11-27T10:40:21;10.67;;;7.90;;
13122;SDS011;6627;50.920;12.050;2022-11-27T10:42:57;9.93;;;7.53;;
13122;SDS011;6627;50.920;12.050;2022-11-27T10:45:37;9.87;;;8.20;;
13122;SDS011;6627;50.920;12.050;2022-11-27T10:48:12;11.50;;;7.80;;
13122;SDS011;6627;50.920;12.050;2022-11-27T10:50:40;17.20;;;8.10;;
13122;SDS011;6627;50.920;12.050;2022-11-27T10:53:10;11.37;;;7.67;;
13122;SDS011;6627;50.920;12.050;2022-11-27T10:55:54;11.53;;;7.67;;
13122;SDS011;6627;50.920;12.050;2022-11-27T10:59:02;15.57;;;8.47;;
13122;SDS011;6627;50.920;12.050;2022-11-27T11:01:43;11.83;;;8.03;;
13122;SDS011;6627;50.920;12.050;2022-11-27T11:04:13;14.60;;;7.73;;
13122;SDS011;6627;50.920;12.050;2022-11-27T11:06:47;14.03;;;7.87;;
13122;SDS011;6627;50.920;12.050;2022-11-27T11:09:15;11.70;;;7.57;;
13122;SDS011;6627;50.920;12.050;2022-11-27T11:11:50;11.10;;;6.90;;
13122;SDS011;6627;50.920;12.050;2022-11-27T11:14:18;13.93;;;8.07;;
13122;SDS011;6627;50.920;12.050;2022-11-27T11:16:49;12.13;;;7.50;;
13122;SDS011;6627;50.920;12.050;2022-11-27T11:19:22;12.63;;;8.00;;
13122;SDS011;6627;50.920;12.050;2022-11-27T11:21:54;12.60;;;8.30;;
13122;SDS011;6627;50.920;12.050;2022-11-27T11:24:24;11.80;;;7.50;;
13122;SDS011;6627;50.920;12.050;2022-11-27T11:26:55;11.23;;;8.20;;
13122;SDS011;6627;50.920;12.050;2022-11-27T11:29:31;10.80;;;7.80;;
13122;SDS011;6627;50.920;12.050;2022-11-27T11:32:06;9.17;;;7.13;;
13122;SDS011;6627;50.920;12.050;2022-11-27T11:34:40;12.70;;;7.53;;
13122;SDS011;6627;50.920;12.050;2022-11-27T11:37:17;10.03;;;7.33;;
13122;SDS011;6627;50.920;12.050;2022-11-27T11:39:54;12.90;;;7.17;;
13122;SDS011;6627;50.920;12.050;2022-11-27T11:42:28;11.83;;;7.23;;
13122;SDS011;6627;50.920;12.050;2022-11-27T11:45:00;10.17;;;6.90;;
13122;SDS011;6627;50.920;12.050;2022-11-27T11:47:33;13.80;;;7.77;;
13122;SDS011;6627;50.920;12.050;2022-11-27T11:50:01;10.40;;;7.07;;
13122;SDS011;6627;50.920;12.050;2022-11-27T11:52:33;9.90;;;6.90;;
13122;SDS011;6627;50.920;12.050;2022-11-27T11:55:17;11.20;;;7.03;;
13122;SDS011;6627;50.920;12.050;2022-11-27T11:58:01;10.77;;;6.83;;
13122;SDS011;6627;50.920;12.050;2022-11-27T12:00:51;8.90;;;6.60;;
13122;SDS011;6627;50.920;12.050;2022-11-27T12:03:36;10.13;;;6.80;;
13122;SDS011;6627;50.920;12.050;2022-11-27T12:06:31;9.77;;;6.40;;
13122;SDS011;6627;50.920;12.050;2022-11-27T12:09:25;9.57;;;6.60;;
13122;SDS011;6627;50.920;12.050;2022-11-27T12:12:12;9.60;;;6.43;;
13122;SDS011;6627;50.920;12.050;2022-11-27T12:14:58;7.83;;;6.20;;
13122;SDS011;6627;50.920;12.050;2022-11-27T12:17:41;8.67;;;6.83;;
13122;SDS011;6627;50.920;12.050;2022-11-27T12:20:25;10.67;;;6.03;;
13122;SDS011;6627;50.920;12.050;2022-11-27T12:23:16;8.63;;;5.77;;
13122;SDS011;6627;50.920;12.050;2022-11-27T12:26:03;8.83;;;6.17;;
13122;SDS011;6627;50.920;12.050;2022-11-27T12:28:51;10.40;;;6.23;;
13122;SDS011;6627;50.920;12.050;2022-11-27T12:32:17;9.40;;;6.10;;
13122;SDS011;6627;50.920;12.050;2022-11-27T12:35:16;11.27;;;6.97;;
13122;SDS011;6627;50.920;12.050;2022-11-27T12:38:00;31.73;;;14.63;;
13122;SDS011;6627;50.920;12.050;2022-11-27T12:40:59;26.17;;;13.53;;
13122;SDS011;6627;50.920;12.050;2022-11-27T12:43:48;12.20;;;7.87;;
13122;SDS011;6627;50.920;12.050;2022-11-27T12:46:25;9.50;;;6.63;;
13122;SDS011;6627;50.920;12.050;2022-11-27T12:49:03;8.87;;;6.60;;
13122;SDS011;6627;50.920;12.050;2022-11-27T12:51:43;16.67;;;9.00;;
13122;SDS011;6627;50.920;12.050;2022-11-27T12:54:18;13.23;;;8.20;;
13122;SDS011;6627;50.920;12.050;2022-11-27T12:56:55;7.93;;;6.10;;
13122;SDS011;6627;50.920;12.050;2022-11-27T12:59:30;11.07;;;6.97;;
13122;SDS011;6627;50.920;12.050;2022-11-27T13:02:04;10.03;;;7.70;;
13122;SDS011;6627;50.920;12.050;2022-11-27T13:04:52;8.50;;;6.60;;
13122;SDS011;6627;50.920;12.050;2022-11-27T13:07:28;11.40;;;6.67;;
13122;SDS011;6627;50.920;12.050;2022-11-27T13:10:10;11.83;;;7.57;;
13122;SDS011;6627;50.920;12.050;2022-11-27T13:12:49;13.67;;;8.20;;
13122;SDS011;6627;50.920;12.050;2022-11-27T13:15:29;14.50;;;7.97;;
13122;SDS011;6627;50.920;12.050;2022-11-27T13:18:09;17.87;;;10.80;;
13122;SDS011;6627;50.920;12.050;2022-11-27T13:20:46;10.53;;;7.00;;
13122;SDS011;6627;50.920;12.050;2022-11-27T13:23:17;10.03;;;6.80;;
13122;SDS011;6627;50.920;12.050;2022-11-27T13:25:47;11.77;;;8.33;;
13122;SDS011;6627;50.920;12.050;2022-11-27T13:28:22;15.10;;;10.73;;
13122;SDS011;6627;50.920;12.050;2022-11-27T13:30:57;10.70;;;8.50;;
13122;SDS011;6627;50.920;12.050;2022-11-27T13:33:29;12.17;;;8.87;;
13122;SDS011;6627;50.920;12.050;2022-11-27T13:36:04;19.40;;;12.10;;
13122;SDS011;6627;50.920;12.050;2022-11-27T13:38:46;11.63;;;9.73;;
13122;SDS011;6627;50.920;12.050;2022-11-27T13:41:20;12.50;;;8.80;;
13122;SDS011;6627;50.920;12.050;2022-11-27T13:43:56;12.90;;;9.83;;
13122;SDS011;6627;50.920;12.050;2022-11-27T13:46:25;11.87;;;8.73;;
13122;SDS011;6627;50.920;12.050;2022-11-27T13:48:56;9.53;;;7.77;;
13122;SDS011;6627;50.920;12.050;2022-11-27T13:51:28;12.17;;;7.53;;
13122;SDS011;6627;50.920;12.050;2022-11-27T13:54:07;12.10;;;6.80;;
13122;SDS011;6627;50.920;12.050;2022-11-27T13:56:37;12.23;;;7.63;;
13122;SDS011;6627;50.920;12.050;2022-11-27T13:59:12;10.67;;;7.23;;
13122;SDS011;6627;50.920;12.050;2022-11-27T14:01:54;10.50;;;7.43;;
13122;SDS011;6627;50.920;12.050;2022-11-27T14:04:24;11.60;;;7.60;;
13122;SDS011;6627;50.920;12.050;2022-11-27T14:06:53;9.23;;;7.57;;
13122;SDS011;6627;50.920;12.050;2022-11-27T14:09:33;13.03;;;8.33;;
13122;SDS011;6627;50.920;12.050;2022-11-27T14:12:13;11.00;;;7.60;;
13122;SDS011;6627;50.920;12.050;2022-11-27T14:14:55;9.47;;;7.67;;
13122;SDS011;6627;50.920;12.050;2022-11-27T14:17:33;9.43;;;7.47;;
13122;SDS011;6627;50.920;12.050;2022-11-27T14:20:17;10.80;;;7.77;;
13122;SDS011;6627;50.920;12.050;2022-11-27T14:22:51;10.53;;;7.93;;
13122;SDS011;6627;50.920;12.050;2022-11-27T14:25:22;14.77;;;8.67;;
13122;SDS011;6627;50.920;12.050;2022-11-27T14:27:56;11.10;;;8.10;;
13122;SDS011;6627;50.920;12.050;2022-11-27T14:30:33;11.90;;;7.40;;
13122;SDS011;6627;50.920;12.050;2022-11-27T14:33:13;10.73;;;8.20;;
13122;SDS011;6627;50.920;12.050;2022-11-27T14:35:46;14.53;;;8.00;;
13122;SDS011;6627;50.920;12.050;2022-11-27T14:38:15;9.80;;;7.47;;
13122;SDS011;6627;50.920;12.050;2022-11-27T14:40:44;9.23;;;7.90;;
13122;SDS011;6627;50.920;12.050;2022-11-27T14:43:13;13.30;;;8.33;;
13122;SDS011;6627;50.920;12.050;2022-11-27T14:45:44;11.37;;;7.80;;
13122;SDS011;6627;50.920;12.050;2022-11-27T14:48:18;10.07;;;8.33;;
13122;SDS011;6627;50.920;12.050;2022-11-27T14:50:50;11.07;;;8.07;;
13122;SDS011;6627;50.920;12.050;2022-11-27T14:53:21;10.00;;;7.60;;
13122;SDS011;6627;50.920;12.050;2022-11-27T14:55:55;11.13;;;8.23;;
13122;SDS011;6627;50.920;12.050;2022-11-27T14:58:24;11.27;;;8.30;;